Time;durP1;ratioP1;P1;durP2;ratioP2;P2;SDS_P1;SDS_P2;PMS_P1;PMS_P2;Temp;Humidity;BMP_temperature;BMP_pressure;BME280_temperature;BME280_humidity;BME280_pressure;Samples;Min_cycle;Max_cycle;Signal;HPM_P1;HPM_P2
2023/07/16 00:02:01;;;;;;;6.10;4.72;;;;;;;44.68;21.57;95197.13;5122985;27;20032;-78
2023/07/16 00:04:27;;;;;;;6.63;4.68;;;;;;;44.66;21.24;95202.81;5105742;28;20210;-79
2023/07/16 00:06:52;;;;;;;6.63;4.70;;;;;;;44.60;21.39;95197.53;5107731;28;20020;-79
2023/07/16 00:09:18;;;;;;;6.50;4.45;;;;;;;44.50;21.14;95197.06;5104367;28;20489;-78
2023/07/16 00:11:43;;;;;;;6.57;4.32;;;;;;;44.56;21.25;95206.00;5122482;27;20054;-79
2023/07/16 00:14:11;;;;;;;7.45;4.60;;;;;;;44.50;21.12;95203.59;5105426;28;20020;-78
2023/07/16 00:16:36;;;;;;;8.15;4.78;;;;;;;44.66;21.01;95197.03;5105191;28;20178;-78
2023/07/16 00:19:02;;;;;;;6.18;4.88;;;;;;;44.70;21.42;95202.97;5106456;28;20087;-79
2023/07/16 00:21:27;;;;;;;7.10;4.95;;;;;;;44.66;20.96;95194.84;5105981;28;20035;-79
2023/07/16 00:23:53;;;;;;;9.07;5.97;;;;;;;44.47;21.52;95195.50;5107345;28;20520;-78
2023/07/16 00:26:18;;;;;;;6.82;5.40;;;;;;;44.24;21.75;95194.59;5121644;27;20037;-77
2023/07/16 00:28:44;;;;;;;6.50;4.75;;;;;;;44.29;21.63;95207.09;5107019;28;20073;-77
2023/07/16 00:31:09;;;;;;;6.97;4.82;;;;;;;44.30;21.37;95204.94;5121502;27;20030;-77
2023/07/16 00:33:35;;;;;;;7.85;4.82;;;;;;;44.33;21.62;95201.44;5122034;27;20027;-78
2023/07/16 00:36:00;;;;;;;9.32;5.32;;;;;;;44.21;21.83;95203.84;5104699;28;20024;-78
2023/07/16 00:38:26;;;;;;;7.85;4.70;;;;;;;44.32;21.55;95194.19;5106127;28;20153;-78
2023/07/16 00:40:51;;;;;;;5.78;4.65;;;;;;;44.16;21.71;95193.47;5106506;28;20419;-78
2023/07/16 00:43:17;;;;;;;6.28;5.10;;;;;;;44.21;21.80;95195.16;5121314;28;20023;-78
2023/07/16 00:45:45;;;;;;;7.85;4.97;;;;;;;44.16;21.35;95200.03;5122677;28;20076;-78
2023/07/16 00:48:11;;;;;;;6.82;4.72;;;;;;;44.26;21.45;95196.81;5105439;28;20059;-78
2023/07/16 00:50:39;;;;;;;8.45;5.00;;;;;;;44.05;21.61;95191.53;5104971;28;20020;-78
2023/07/16 00:53:08;;;;;;;6.97;5.35;;;;;;;44.11;21.52;95198.38;5105648;28;20119;-78
2023/07/16 00:55:35;;;;;;;6.07;4.68;;;;;;;43.94;21.71;95196.94;5122065;28;20415;-77
2023/07/16 00:58:05;;;;;;;8.27;4.78;;;;;;;43.79;22.00;95194.81;5104935;28;20020;-78
2023/07/16 01:00:33;;;;;;;9.15;4.82;;;;;;;44.02;21.77;95193.63;5104126;28;20502;-78
2023/07/16 01:03:00;;;;;;;5.63;4.70;;;;;;;44.00;21.61;95190.66;5105178;28;20031;-77
2023/07/16 01:05:27;;;;;;;5.60;4.53;;;;;;;43.80;21.92;95187.63;5120880;28;20502;-77
2023/07/16 01:07:59;;;;;;;6.38;5.10;;;;;;;43.77;22.02;95197.59;5121983;28;20072;-77
2023/07/16 01:10:26;;;;;;;6.88;4.65;;;;;;;43.56;22.11;95193.06;5120957;28;20031;-78
2023/07/16 01:12:53;;;;;;;9.45;4.28;;;;;;;43.71;22.18;95191.53;5104766;28;20019;-78
2023/07/16 01:15:19;;;;;;;6.40;4.63;;;;;;;43.72;21.76;95184.34;5121344;28;20058;-77
2023/07/16 01:17:45;;;;;;;6.55;4.80;;;;;;;43.76;21.87;95198.22;5104360;28;20031;-77
2023/07/16 01:20:11;;;;;;;7.00;4.90;;;;;;;43.77;21.85;95188.91;5104975;28;20027;-78
2023/07/16 01:22:57;;;;;;;6.85;5.03;;;;;;;43.49;22.24;95190.56;5105547;28;20087;-77
2023/07/16 01:25:22;;;;;;;6.07;4.43;;;;;;;43.60;22.06;95193.25;5124451;27;20055;-77
2023/07/16 01:28:21;;;;;;;6.28;4.40;;;;;;;43.44;22.43;95187.47;5109494;28;20065;-77
2023/07/16 01:30:47;;;;;;;5.00;4.60;;;;;;;43.38;22.35;95189.31;5109340;28;20426;-77
2023/07/16 01:33:15;;;;;;;5.95;4.90;;;;;;;43.32;22.10;95189.06;5108768;28;20071;-77
2023/07/16 01:35:41;;;;;;;6.78;4.65;;;;;;;43.25;22.64;95185.13;5107781;28;20485;-77
2023/07/16 01:38:07;;;;;;;4.93;4.30;;;;;;;43.32;22.11;95181.13;5108569;28;20080;-79
2023/07/16 01:40:33;;;;;;;5.75;4.75;;;;;;;43.16;22.08;95186.16;5124996;27;20050;-77
2023/07/16 01:42:58;;;;;;;7.30;4.40;;;;;;;43.54;21.92;95192.22;5125375;27;20474;-78
2023/07/16 01:45:24;;;;;;;6.70;4.75;;;;;;;43.52;21.85;95187.09;5109133;27;20022;-77
2023/07/16 01:48:06;;;;;;;7.10;4.55;;;;;;;43.44;21.74;95196.16;5124997;27;20023;-77
2023/07/16 01:50:32;;;;;;;6.47;4.05;;;;;;;43.22;21.86;95195.09;5125262;27;20027;-78
2023/07/16 01:52:57;;;;;;;4.85;4.35;;;;;;;43.34;21.64;95189.13;5107384;28;20032;-77
2023/07/16 01:55:23;;;;;;;7.38;4.50;;;;;;;43.44;21.67;95189.63;5125283;27;20026;-77
2023/07/16 01:57:48;;;;;;;6.47;4.38;;;;;;;43.38;21.66;95190.06;5108731;28;20108;-77
2023/07/16 02:00:14;;;;;;;5.65;4.50;;;;;;;43.38;21.77;95187.19;5108842;27;20477;-77
2023/07/16 02:02:39;;;;;;;6.18;4.50;;;;;;;43.40;21.78;95193.06;5108823;28;20024;-77
2023/07/16 02:05:05;;;;;;;5.82;4.30;;;;;;;43.31;21.74;95191.19;5108891;28;20043;-76
2023/07/16 02:07:30;;;;;;;5.68;4.20;;;;;;;43.63;21.42;95196.97;5109578;28;20015;-77
2023/07/16 02:09:56;;;;;;;5.88;4.00;;;;;;;43.83;20.93;95197.16;5124303;27;20023;-78
2023/07/16 02:12:21;;;;;;;5.53;3.35;;;;;;;43.70;20.83;95198.72;5108990;28;20581;-77
2023/07/16 02:14:46;;;;;;;5.57;3.35;;;;;;;44.18;20.20;95196.47;5106935;28;20137;-77
2023/07/16 02:17:12;;;;;;;5.15;3.20;;;;;;;44.58;20.01;95196.69;5109218;28;20075;-77
2023/07/16 02:19:37;;;;;;;4.72;3.20;;;;;;;44.55;19.73;95192.94;5108487;28;20026;-78
2023/07/16 02:22:03;;;;;;;4.00;2.78;;;;;;;44.54;19.58;95202.31;5124411;27;20481;-78
2023/07/16 02:24:28;;;;;;;4.72;2.85;;;;;;;44.49;19.59;95205.03;5124173;27;20055;-78
2023/07/16 02:26:54;;;;;;;6.22;3.47;;;;;;;44.49;19.79;95198.47;5124104;27;20040;-78
2023/07/16 02:29:19;;;;;;;6.63;3.70;;;;;;;44.25;20.08;95192.44;5108909;28;20114;-78
2023/07/16 02:31:46;;;;;;;4.60;3.10;;;;;;;44.24;19.60;95202.53;5106739;28;20052;-78
2023/07/16 02:34:12;;;;;;;4.65;3.13;;;;;;;44.14;20.00;95204.97;5124504;27;20035;-77
2023/07/16 02:36:37;;;;;;;6.75;3.40;;;;;;;44.08;20.12;95198.94;5106737;28;20410;-77
2023/07/16 02:39:03;;;;;;;6.30;3.17;;;;;;;44.20;19.75;95206.00;5124437;27;20452;-78
2023/07/16 02:41:28;;;;;;;4.03;2.55;;;;;;;44.37;19.45;95198.72;5108249;28;20028;-76
2023/07/16 02:44:01;;;;;;;4.18;2.70;;;;;;;44.38;19.75;95203.13;5106801;28;20020;-76
2023/07/16 02:46:27;;;;;;;5.00;2.65;;;;;;;44.27;19.65;95201.19;5107505;28;20072;-76
2023/07/16 02:48:52;;;;;;;3.67;2.88;;;;;;;44.04;20.08;95199.50;5123557;27;20102;-79
2023/07/16 02:51:17;;;;;;;7.03;3.10;;;;;;;43.89;19.90;95209.00;5108217;27;20028;-77
2023/07/16 02:53:43;;;;;;;4.60;2.92;;;;;;;43.71;20.06;95198.06;5123323;27;20027;-77
2023/07/16 02:56:08;;;;;;;5.57;3.15;;;;;;;43.84;19.90;95201.53;5108456;28;20036;-78
2023/07/16 02:58:34;;;;;;;4.00;2.72;;;;;;;44.07;19.85;95206.88;5107461;28;20035;-76
2023/07/16 03:00:59;;;;;;;3.83;2.78;;;;;;;44.12;19.76;95202.00;5108033;27;20023;-77
2023/07/16 03:03:24;;;;;;;4.45;2.55;;;;;;;44.17;19.66;95210.19;5106482;28;20024;-77
2023/07/16 03:05:50;;;;;;;5.18;3.15;;;;;;;44.22;19.67;95211.16;5107643;28;20039;-76
2023/07/16 03:08:15;;;;;;;6.00;3.10;;;;;;;44.19;19.67;95207.41;5108155;28;20028;-77
2023/07/16 03:10:40;;;;;;;4.20;3.10;;;;;;;43.95;20.12;95209.25;5122809;27;20020;-77
2023/07/16 03:13:06;;;;;;;5.60;3.28;;;;;;;44.08;19.87;95205.47;5107955;28;20023;-77
2023/07/16 03:15:31;;;;;;;4.80;3.30;;;;;;;44.20;19.98;95211.78;5122786;27;20040;-77
2023/07/16 03:17:57;;;;;;;5.47;3.80;;;;;;;44.13;19.83;95210.03;5107957;28;20485;-77
2023/07/16 03:20:22;;;;;;;6.53;3.30;;;;;;;43.86;20.16;95205.25;5105500;28;20114;-77
2023/07/16 03:22:48;;;;;;;6.82;3.60;;;;;;;43.73;20.44;95206.09;5107521;27;20027;-77
2023/07/16 03:25:13;;;;;;;4.63;3.20;;;;;;;43.58;20.50;95213.41;5106357;28;20027;-77
2023/07/16 03:27:38;;;;;;;8.85;3.65;;;;;;;43.54;20.50;95218.28;5122638;27;20070;-77
2023/07/16 03:30:04;;;;;;;5.03;3.88;;;;;;;43.48;20.92;95215.84;5107850;28;20028;-77
2023/07/16 03:32:30;;;;;;;5.32;3.65;;;;;;;43.50;20.74;95220.97;5106610;28;20023;-77
2023/07/16 03:34:55;;;;;;;5.97;3.88;;;;;;;43.38;20.82;95207.44;5107601;28;20049;-77
2023/07/16 03:37:21;;;;;;;8.30;4.40;;;;;;;43.50;20.86;95227.50;5122705;27;20027;-76
2023/07/16 03:39:46;;;;;;;7.47;3.70;;;;;;;43.62;20.68;95225.16;5123274;27;20297;-77
2023/07/16 03:42:11;;;;;;;6.32;3.85;;;;;;;43.63;20.72;95228.78;5107029;28;20462;-77
2023/07/16 03:44:37;;;;;;;5.95;3.42;;;;;;;43.70;20.56;95227.66;5106864;28;20031;-77
2023/07/16 03:47:02;;;;;;;4.03;3.25;;;;;;;43.65;20.33;95231.81;5107269;28;20466;-77
2023/07/16 03:49:28;;;;;;;6.45;3.35;;;;;;;43.56;20.73;95230.69;5106245;28;20039;-78
2023/07/16 03:51:53;;;;;;;6.40;3.40;;;;;;;43.51;20.62;95220.31;5107153;28;20442;-79
2023/07/16 03:54:18;;;;;;;7.03;3.40;;;;;;;43.53;20.54;95217.53;5122313;27;20075;-78
2023/07/16 03:56:44;;;;;;;7.50;3.13;;;;;;;43.45;20.51;95220.78;5107238;28;20028;-77
2023/07/16 03:59:09;;;;;;;5.40;2.50;;;;;;;43.71;20.29;95235.72;5106643;28;20498;-78
2023/07/16 04:01:35;;;;;;;5.30;2.80;;;;;;;43.81;20.07;95235.41;5122428;27;20028;-77
2023/07/16 04:04:00;;;;;;;3.72;2.50;;;;;;;43.85;20.20;95237.75;5107290;28;20029;-77
2023/07/16 04:06:26;;;;;;;4.10;2.47;;;;;;;43.89;19.53;95230.00;5104778;28;20537;-78
2023/07/16 04:08:51;;;;;;;3.05;2.45;;;;;;;43.88;19.92;95234.31;5105713;28;20032;-78
2023/07/16 04:11:16;;;;;;;5.65;2.70;;;;;;;43.87;19.74;95235.69;5106013;28;20160;-78
2023/07/16 04:13:42;;;;;;;5.55;2.65;;;;;;;43.99;19.67;95239.13;5106627;28;20089;-77
2023/07/16 04:16:07;;;;;;;3.97;2.42;;;;;;;44.04;19.37;95234.25;5106319;28;20047;-76
2023/07/16 04:18:33;;;;;;;5.32;2.53;;;;;;;44.17;19.47;95241.31;5106536;28;20023;-77
2023/07/16 04:20:58;;;;;;;6.20;2.38;;;;;;;44.14;19.46;95236.84;5106109;28;20024;-77
2023/07/16 04:23:25;;;;;;;4.55;2.65;;;;;;;44.11;19.60;95244.69;5106319;28;20016;-77
2023/07/16 04:25:58;;;;;;;5.20;2.55;;;;;;;44.06;19.55;95234.34;5106682;28;20023;-76
2023/07/16 04:28:23;;;;;;;4.05;2.55;;;;;;;44.40;19.43;95237.97;5105984;28;20028;-76
2023/07/16 04:30:49;;;;;;;4.63;2.50;;;;;;;44.37;19.23;95239.28;5106738;28;20109;-77
2023/07/16 04:33:14;;;;;;;4.18;2.83;;;;;;;44.45;19.21;95239.66;5104344;28;20038;-77
2023/07/16 04:35:40;;;;;;;3.60;2.40;;;;;;;44.41;19.33;95242.38;5106202;28;20032;-77
2023/07/16 04:38:05;;;;;;;4.72;2.60;;;;;;;44.31;19.46;95244.84;5106020;28;20036;-77
2023/07/16 04:40:30;;;;;;;3.90;2.30;;;;;;;44.36;19.19;95255.19;5121702;27;20055;-77
2023/07/16 04:42:56;;;;;;;5.45;2.80;;;;;;;44.34;19.17;95246.44;5104723;28;20560;-78
2023/07/16 04:45:21;;;;;;;6.57;2.53;;;;;;;44.57;19.20;95258.94;5121974;28;20495;-78
2023/07/16 04:47:47;;;;;;;3.35;2.35;;;;;;;44.83;19.09;95259.28;5105367;28;20023;-78
2023/07/16 04:50:12;;;;;;;6.82;2.70;;;;;;;45.23;18.27;95257.28;5121531;28;20383;-77
2023/07/16 04:52:38;;;;;;;4.93;2.47;;;;;;;45.29;18.35;95261.16;5122071;28;20107;-77
2023/07/16 04:55:04;;;;;;;4.85;2.33;;;;;;;45.18;18.25;95261.44;5121597;28;20055;-77
2023/07/16 04:57:29;;;;;;;4.53;2.50;;;;;;;45.10;18.54;95258.22;5106068;28;20031;-77
2023/07/16 04:59:55;;;;;;;4.30;2.50;;;;;;;45.22;18.38;95253.63;5107678;28;20099;-77
2023/07/16 05:02:20;;;;;;;4.50;2.15;;;;;;;45.35;18.29;95257.75;5110187;28;20832;-77
2023/07/16 05:04:47;;;;;;;4.63;2.50;;;;;;;45.51;18.25;95260.56;5110335;28;20389;-77
2023/07/16 05:07:13;;;;;;;4.22;2.50;;;;;;;45.83;17.90;95266.13;5108699;28;20016;-77
2023/07/16 05:09:39;;;;;;;6.10;2.67;;;;;;;45.88;17.93;95271.38;5110105;28;20033;-77
2023/07/16 05:12:05;;;;;;;4.13;2.50;;;;;;;45.86;17.63;95264.75;5108190;28;20038;-77
2023/07/16 05:14:30;;;;;;;7.88;2.78;;;;;;;45.67;17.92;95263.31;5108512;28;20412;-77
2023/07/16 05:16:56;;;;;;;6.07;2.42;;;;;;;46.12;17.86;95259.16;5109300;28;20126;-77
2023/07/16 05:19:21;;;;;;;5.03;2.30;;;;;;;46.46;17.64;95260.38;5110105;28;20441;-78
2023/07/16 05:21:47;;;;;;;5.90;2.85;;;;;;;46.30;17.48;95269.28;5125306;27;20019;-78
2023/07/16 05:24:12;;;;;;;3.65;2.30;;;;;;;46.54;17.02;95259.94;5108531;28;20020;-78
2023/07/16 05:26:38;;;;;;;5.60;2.15;;;;;;;46.62;17.17;95263.09;5108456;28;20089;-77
2023/07/16 05:29:03;;;;;;;5.85;2.60;;;;;;;46.46;17.59;95262.53;5125241;27;20034;-77
2023/07/16 05:31:29;;;;;;;4.40;2.58;;;;;;;46.73;17.21;95267.09;5109542;28;20031;-77
2023/07/16 05:33:54;;;;;;;4.25;2.33;;;;;;;46.75;16.90;95265.00;5107509;28;20031;-77
2023/07/16 05:36:19;;;;;;;3.92;2.50;;;;;;;46.82;16.83;95268.84;5108175;28;20073;-77
2023/07/16 05:38:45;;;;;;;4.43;2.40;;;;;;;46.59;17.26;95267.38;5124856;27;20026;-77
2023/07/16 05:41:10;;;;;;;3.75;2.30;;;;;;;46.58;17.47;95275.34;5109756;28;20100;-78
2023/07/16 05:43:36;;;;;;;3.88;2.15;;;;;;;46.89;17.18;95275.63;5109330;28;20023;-77
2023/07/16 05:46:01;;;;;;;4.13;2.40;;;;;;;46.43;17.03;95279.16;5109651;28;20106;-78
2023/07/16 05:48:26;;;;;;;6.47;2.47;;;;;;;42.82;20.92;95272.72;5125348;27;20019;-80
2023/07/16 05:50:52;;;;;;;4.80;3.08;;;;;;;41.00;22.86;95274.00;5109200;28;20126;-79
2023/07/16 05:53:17;;;;;;;6.15;3.17;;;;;;;39.83;24.55;95275.09;5109479;28;20038;-77
2023/07/16 05:55:43;;;;;;;4.95;3.10;;;;;;;38.88;26.07;95272.72;5108528;28;20073;-78
2023/07/16 05:58:08;;;;;;;3.80;3.30;;;;;;;38.17;26.95;95268.78;5109539;28;20466;-81
2023/07/16 06:00:35;;;;;;;3.97;2.90;;;;;;;37.61;27.60;95274.25;5108580;28;20474;-79
2023/07/16 06:03:01;;;;;;;7.15;3.40;;;;;;;37.28;27.81;95268.34;5109929;28;20020;-81
2023/07/16 06:05:27;;;;;;;4.95;3.70;;;;;;;36.92;28.18;95267.25;5109317;28;20075;-82
2023/07/16 06:07:52;;;;;;;5.40;3.45;;;;;;;36.88;28.99;95269.84;5109009;28;20465;-81
2023/07/16 06:10:18;;;;;;;5.07;3.25;;;;;;;36.66;29.14;95271.81;5108929;28;20019;-81
2023/07/16 06:12:43;;;;;;;4.15;3.10;;;;;;;36.36;29.33;95279.66;5107913;28;20450;-84
2023/07/16 06:15:09;;;;;;;6.93;3.42;;;;;;;36.20;29.58;95272.72;5107292;28;20097;-82
2023/07/16 06:17:34;;;;;;;4.40;3.10;;;;;;;36.42;29.31;95273.66;5108451;28;20398;-78
2023/07/16 06:20:00;;;;;;;4.93;3.08;;;;;;;36.49;29.06;95280.56;5124423;27;20023;-80
2023/07/16 06:22:25;;;;;;;7.05;3.22;;;;;;;35.97;29.92;95264.56;5124550;27;20441;-80
2023/07/16 06:24:51;;;;;;;7.55;3.58;;;;;;;36.21;30.06;95285.66;5108539;27;20402;-80
2023/07/16 06:27:16;;;;;;;5.72;3.55;;;;;;;36.35;30.12;95272.41;5108964;27;20031;-78
2023/07/16 06:29:41;;;;;;;3.95;2.90;;;;;;;36.47;29.38;95266.84;5106417;28;20031;-76
2023/07/16 06:32:08;;;;;;;4.15;2.97;;;;;;;36.47;29.87;95272.56;5109004;28;20035;-77
2023/07/16 06:34:33;;;;;;;3.97;3.38;;;;;;;36.36;29.49;95273.16;5123430;27;20399;-76
2023/07/16 06:36:59;;;;;;;5.82;3.58;;;;;;;36.46;29.93;95264.59;5124505;27;20521;-77
2023/07/16 06:39:24;;;;;;;4.45;3.22;;;;;;;36.57;29.43;95261.88;5106655;28;20454;-77
2023/07/16 06:41:49;;;;;;;7.15;3.60;;;;;;;36.30;29.35;95264.88;5123958;27;20031;-75
2023/07/16 06:44:15;;;;;;;5.05;3.05;;;;;;;36.46;29.01;95264.59;5107088;28;20028;-78
2023/07/16 06:46:40;;;;;;;4.05;3.22;;;;;;;36.58;29.22;95263.38;5106307;28;20386;-78
2023/07/16 06:49:07;;;;;;;4.97;3.45;;;;;;;36.45;28.49;95272.44;5108984;28;20053;-78
2023/07/16 06:51:32;;;;;;;5.57;3.85;;;;;;;35.81;28.93;95266.16;5123120;27;20027;-78
2023/07/16 06:53:59;;;;;;;4.65;3.85;;;;;;;35.16;30.19;95264.75;5124107;27;20610;-78
2023/07/16 06:56:24;;;;;;;6.10;3.88;;;;;;;34.46;31.12;95260.53;5123757;27;20031;-79
2023/07/16 06:58:50;;;;;;;7.32;4.00;;;;;;;33.99;32.20;95263.16;5106734;28;20030;-77
2023/07/16 07:01:15;;;;;;;5.50;4.35;;;;;;;33.57;33.02;95257.47;5106663;28;20089;-77
2023/07/16 07:03:40;;;;;;;8.07;4.63;;;;;;;33.25;34.13;95266.81;5107760;28;20089;-77
2023/07/16 07:06:06;;;;;;;11.88;4.25;;;;;;;33.02;34.81;95262.03;5108208;27;20024;-78
2023/07/16 07:08:31;;;;;;;6.40;4.00;;;;;;;32.83;34.94;95256.09;5123117;27;20028;-78
2023/07/16 07:10:57;;;;;;;6.88;4.18;;;;;;;32.60;35.11;95266.84;5123364;27;20383;-77
2023/07/16 07:13:23;;;;;;;5.60;3.88;;;;;;;32.36;35.87;95251.22;5107236;28;20023;-78
2023/07/16 07:15:49;;;;;;;5.90;4.03;;;;;;;32.17;36.31;95257.31;5123062;27;20071;-77
2023/07/16 07:18:14;;;;;;;7.35;4.88;;;;;;;32.01;37.01;95253.78;5107348;28;20493;-79
2023/07/16 07:20:40;;;;;;;5.95;4.30;;;;;;;31.82;37.15;95259.88;5105749;28;20035;-76
2023/07/16 07:23:07;;;;;;;6.65;4.03;;;;;;;32.71;36.48;95247.22;5123325;27;20472;-83
2023/07/16 07:25:33;;;;;;;6.70;4.22;;;;;;;33.04;36.00;95252.94;5105752;28;20024;-79
2023/07/16 07:27:59;;;;;;;6.43;4.25;;;;;;;33.62;35.17;95255.72;5123664;27;20031;-81
2023/07/16 07:30:25;;;;;;;7.10;3.90;;;;;;;34.28;34.16;95248.38;5107021;28;20027;-80
2023/07/16 07:32:50;;;;;;;5.82;3.95;;;;;;;35.07;33.04;95260.50;5123148;27;20032;-77
2023/07/16 07:35:16;;;;;;;5.10;3.50;;;;;;;35.38;31.88;95252.22;5105544;28;20410;-79
2023/07/16 07:37:41;;;;;;;5.28;3.92;;;;;;;35.71;31.17;95262.53;5122864;27;20556;-82
2023/07/16 07:40:07;;;;;;;6.35;3.78;;;;;;;35.89;31.03;95255.34;5105732;28;20032;-78
2023/07/16 07:42:33;;;;;;;4.60;3.78;;;;;;;36.60;30.45;95248.47;5122798;27;20020;-81
2023/07/16 07:44:58;;;;;;;4.95;3.88;;;;;;;36.79;29.82;95250.53;5105874;28;20027;-82
2023/07/16 07:47:23;;;;;;;6.00;3.58;;;;;;;37.14;29.42;95248.78;5105237;28;20023;-85
2023/07/16 07:49:49;;;;;;;6.63;3.67;;;;;;;37.14;28.64;95251.66;5105538;28;20062;-80
2023/07/16 07:52:14;;;;;;;6.80;4.13;;;;;;;37.01;28.73;95255.03;5106495;27;20027;-79
2023/07/16 07:54:40;;;;;;;6.03;3.63;;;;;;;36.83;29.03;95245.09;5106724;28;20719;-77
2023/07/16 07:57:06;;;;;;;7.65;4.35;;;;;;;36.29;29.33;95251.91;5121915;27;20455;-79
2023/07/16 07:59:32;;;;;;;5.85;3.83;;;;;;;35.86;30.03;95243.00;5108878;28;20034;-91
2023/07/16 08:02:03;;;;;;;6.80;4.40;;;;;;;35.48;30.67;95252.25;5102895;28;20028;-86
2023/07/16 08:04:28;;;;;;;6.47;4.13;;;;;;;35.06;31.54;95250.41;5091315;28;20026;-88
2023/07/16 08:06:54;;;;;;;7.15;4.10;;;;;;;34.75;32.15;95252.91;5122894;27;20430;-84
2023/07/16 08:09:20;;;;;;;4.88;3.80;;;;;;;34.38;31.50;95239.91;5105367;28;20035;-85
2023/07/16 08:11:45;;;;;;;6.25;4.13;;;;;;;34.12;32.02;95239.25;5122493;27;20030;-86
2023/07/16 08:14:10;;;;;;;6.97;4.43;;;;;;;33.98;32.94;95244.53;5104156;28;20038;-82
2023/07/16 08:16:36;;;;;;;7.95;4.75;;;;;;;33.77;33.36;95241.31;5106881;28;20047;-83
2023/07/16 08:19:01;;;;;;;6.22;4.18;;;;;;;33.67;33.65;95246.19;5107152;28;20084;-77
2023/07/16 08:21:27;;;;;;;7.38;5.10;;;;;;;33.43;33.82;95242.75;5105992;28;20543;-89
2023/07/16 08:23:54;;;;;;;6.07;4.68;;;;;;;33.30;34.42;95249.50;5087382;28;20479;-81
2023/07/16 08:26:20;;;;;;;6.80;5.18;;;;;;;33.21;34.92;95240.84;5105052;28;20106;-82
2023/07/16 08:28:47;;;;;;;6.20;5.13;;;;;;;33.06;34.27;95246.66;5088552;28;20016;-82
2023/07/16 08:31:14;;;;;;;8.38;5.07;;;;;;;32.97;35.28;95254.47;5106203;28;20089;-82
2023/07/16 08:33:41;;;;;;;9.10;4.85;;;;;;;32.88;35.01;95252.28;5087146;28;20050;-84
2023/07/16 08:36:10;;;;;;;7.28;4.60;;;;;;;32.76;35.05;95246.25;5104613;28;20028;-84
2023/07/16 08:38:36;;;;;;;7.35;5.20;;;;;;;32.70;35.41;95242.13;5104886;28;20081;-84
2023/07/16 08:41:01;;;;;;;7.13;5.80;;;;;;;32.69;35.25;95241.38;5104962;28;20028;-84
2023/07/16 08:43:28;;;;;;;6.72;5.60;;;;;;;32.60;35.63;95244.06;5087966;28;20035;-84
2023/07/16 08:45:54;;;;;;;10.32;5.97;;;;;;;32.53;36.02;95242.78;5105291;28;20260;-83
2023/07/16 08:48:19;;;;;;;9.43;5.22;;;;;;;32.50;36.51;95241.84;5104587;28;20135;-83
2023/07/16 08:50:48;;;;;;;7.93;6.00;;;;;;;32.51;36.34;95236.91;5104543;28;20019;-83
2023/07/16 08:53:18;;;;;;;9.73;5.47;;;;;;;32.52;36.34;95241.28;5104231;28;20023;-83
2023/07/16 08:55:45;;;;;;;7.53;5.45;;;;;;;32.54;36.21;95238.59;5121625;28;20086;-83
2023/07/16 08:58:12;;;;;;;7.28;5.30;;;;;;;32.48;36.22;95233.13;5104461;28;20051;-83
2023/07/16 09:00:38;;;;;;;7.07;5.28;;;;;;;32.54;36.35;95237.84;5103553;28;20043;-83
2023/07/16 09:03:04;;;;;;;8.02;5.28;;;;;;;32.54;36.44;95235.00;5087975;28;20112;-80
2023/07/16 09:05:29;;;;;;;6.85;5.07;;;;;;;32.58;36.38;95238.97;5106175;28;20076;-83
2023/07/16 09:08:13;;;;;;;5.97;5.20;;;;;;;32.63;36.55;95234.38;5120183;28;20418;-81
2023/07/16 09:10:42;;;;;;;8.77;6.40;;;;;;;32.74;36.44;95231.06;5105020;28;20027;-85
2023/07/16 09:13:07;;;;;;;9.23;5.72;;;;;;;32.78;35.79;95228.59;5104701;28;20114;-81
2023/07/16 09:15:37;;;;;;;6.75;5.53;;;;;;;32.84;36.46;95220.59;5087279;28;20122;-77
2023/07/16 09:18:05;;;;;;;9.13;5.57;;;;;;;32.92;36.64;95223.41;5121302;28;20032;-78
2023/07/16 09:20:31;;;;;;;8.63;6.45;;;;;;;33.00;35.54;95227.72;5105956;28;20551;-77
2023/07/16 09:22:57;;;;;;;9.52;6.28;;;;;;;33.07;35.71;95225.38;5103662;28;20024;-81
2023/07/16 09:25:27;;;;;;;12.07;5.97;;;;;;;33.13;35.60;95223.06;5121821;28;20309;-86
2023/07/16 09:27:53;;;;;;;9.43;6.60;;;;;;;33.16;35.30;95222.66;5103772;28;20501;-81
2023/07/16 09:30:18;;;;;;;7.43;5.68;;;;;;;33.23;35.18;95218.25;5122270;28;20030;-85
2023/07/16 09:32:45;;;;;;;7.50;6.03;;;;;;;33.29;34.79;95221.59;5120541;28;20069;-86
2023/07/16 09:35:13;;;;;;;11.23;6.30;;;;;;;33.36;35.11;95212.22;5121274;28;20391;-85
2023/07/16 09:37:41;;;;;;;7.90;6.40;;;;;;;33.46;35.32;95218.81;5103601;28;20059;-85
2023/07/16 09:40:09;;;;;;;12.80;6.85;;;;;;;33.49;35.25;95208.34;5104064;28;20051;-83
2023/07/16 09:43:01;;;;;;;10.02;5.65;;;;;;;33.58;34.90;95210.53;5104499;28;20034;-82
2023/07/16 09:45:27;;;;;;;7.35;5.95;;;;;;;33.73;34.73;95221.03;5106726;28;20027;-81
2023/07/16 09:47:54;;;;;;;9.82;6.22;;;;;;;33.72;35.02;95208.09;5124948;27;20039;-82
2023/07/16 09:50:23;;;;;;;8.80;6.15;;;;;;;33.79;34.76;95213.75;5108116;28;20031;-80
2023/07/16 09:52:49;;;;;;;11.45;6.20;;;;;;;33.89;34.19;95213.81;5090774;28;20024;-82
2023/07/16 09:55:15;;;;;;;13.05;6.25;;;;;;;33.92;34.58;95212.66;5090810;28;20035;-84
2023/07/16 09:57:42;;;;;;;10.73;6.07;;;;;;;33.99;33.95;95206.13;5108418;28;20554;-83
2023/07/16 10:00:12;;;;;;;8.10;6.63;;;;;;;34.17;33.81;95209.72;5108049;28;20088;-84
2023/07/16 10:02:38;;;;;;;9.52;6.45;;;;;;;34.22;33.59;95205.84;5107069;28;20028;-82
2023/07/16 10:05:14;;;;;;;8.85;6.88;;;;;;;34.32;33.91;95208.78;5108131;28;20031;-84
2023/07/16 10:07:40;;;;;;;8.60;6.47;;;;;;;34.47;33.53;95205.00;5090757;28;20031;-83
2023/07/16 10:10:10;;;;;;;8.73;6.35;;;;;;;34.55;33.48;95203.53;5107804;28;20020;-84
2023/07/16 10:12:38;;;;;;;7.93;6.00;;;;;;;34.64;32.99;95201.31;5125310;27;20030;-90
2023/07/16 10:15:05;;;;;;;8.25;6.65;;;;;;;34.76;32.30;95194.50;5108077;28;20120;-82
2023/07/16 10:17:32;;;;;;;8.68;6.55;;;;;;;34.88;32.97;95200.41;5125782;27;20140;-88
2023/07/16 10:20:08;;;;;;;10.20;7.35;;;;;;;34.96;32.60;95201.06;5113585;28;20027;-87
2023/07/16 10:22:41;;;;;;;8.35;6.75;;;;;;;34.99;32.06;95202.75;5124816;27;20482;-90
2023/07/16 10:25:19;;;;;;;10.82;6.20;;;;;;;35.05;32.10;95188.94;5123528;28;20031;-87
2023/07/16 10:27:46;;;;;;;10.60;6.68;;;;;;;35.14;31.85;95187.44;5108477;27;20019;-85
2023/07/16 10:30:12;;;;;;;10.35;6.97;;;;;;;35.23;32.03;95186.72;5108333;28;20100;-86
2023/07/16 10:32:38;;;;;;;10.00;7.15;;;;;;;35.27;31.79;95177.69;5106435;28;20123;-86
2023/07/16 10:35:05;;;;;;;11.32;6.70;;;;;;;35.42;32.02;95185.25;5107515;28;20118;-83
2023/07/16 10:37:31;;;;;;;12.10;7.80;;;;;;;35.48;31.71;95189.38;5124162;27;20143;-77
2023/07/16 10:39:58;;;;;;;8.30;6.80;;;;;;;35.51;32.00;95173.13;5123973;27;20110;-76
2023/07/16 10:42:25;;;;;;;9.63;7.50;;;;;;;35.67;30.92;95188.63;5124759;27;20027;-77
2023/07/16 10:44:55;;;;;;;9.73;7.03;;;;;;;35.80;31.21;95185.34;5108489;28;20118;-75
2023/07/16 10:47:29;;;;;;;9.88;7.22;;;;;;;35.89;30.88;95180.97;5106581;28;20501;-73
2023/07/16 10:49:56;;;;;;;10.48;6.90;;;;;;;36.08;31.23;95177.41;5123861;27;20063;-77
2023/07/16 10:52:22;;;;;;;17.73;8.05;;;;;;;36.13;31.11;95171.38;5090822;28;20023;-79
2023/07/16 10:54:51;;;;;;;9.98;7.25;;;;;;;36.28;30.33;95173.16;5106424;28;20170;-79
2023/07/16 10:57:19;;;;;;;14.07;8.07;;;;;;;36.43;30.91;95166.38;5107459;28;20030;-77
2023/07/16 10:59:44;;;;;;;8.70;7.45;;;;;;;36.55;30.27;95163.66;5107907;28;20438;-76
2023/07/16 11:02:12;;;;;;;15.50;7.38;;;;;;;36.62;30.78;95159.84;5106455;28;20199;-77
2023/07/16 11:04:37;;;;;;;9.68;8.18;;;;;;;36.76;30.98;95171.53;5089363;28;20024;-75
2023/07/16 11:07:08;;;;;;;13.95;8.02;;;;;;;36.76;30.16;95162.94;5107231;28;20039;-77
2023/07/16 11:09:33;;;;;;;10.93;7.30;;;;;;;36.86;30.16;95164.44;5123771;27;20076;-75
2023/07/16 11:12:09;;;;;;;11.38;7.90;;;;;;;36.86;30.55;95167.28;5122937;27;20078;-78
2023/07/16 11:14:34;;;;;;;13.82;8.23;;;;;;;36.91;29.86;95156.91;5089882;28;20035;-80
2023/07/16 11:17:19;;;;;;;13.60;8.43;;;;;;;37.02;29.98;95156.25;5106185;28;20054;-79
2023/07/16 11:19:46;;;;;;;11.77;7.93;;;;;;;37.09;30.59;95152.44;5106052;28;20474;-80
2023/07/16 11:22:13;;;;;;;10.32;7.90;;;;;;;37.14;28.39;95154.22;5123941;27;20057;-79
2023/07/16 11:24:39;;;;;;;13.65;7.80;;;;;;;37.17;30.04;95152.25;5105735;28;20482;-81
2023/07/16 11:27:26;;;;;;;9.57;7.20;;;;;;;37.26;29.41;95150.69;5106513;28;20028;-86
2023/07/16 11:29:54;;;;;;;9.55;6.60;;;;;;;37.25;27.64;95149.94;5106204;28;20039;-86